Cocopelli — PB7752 — position and weather

sailwx.info

Track history (hours):
 
Tides and Currents Weather Stations Pressure Air Temp Water Temp Dewpoint Dewpoint Depression Visibility Wind Speed Wind Dir Waves Ship Positions

Cocopelli

Last reported at 2016-Jun-26 14:31 UTC. Time now 2016-Jun-30 07:00 UTC.
Position N 52°24' E 004°53'.

Length 15 m.

Type: Sailing vessel. MMSI: 244730543.

Date/timePositionNaut miles runAvg speedWind from/ knotsBaromVisibWave heightAir tempDewpointWater temp
2016-Jun-26 14:31N 52°24' E 004°53'0 0.0
2016-Jun-26 13:31N 52°24' E 004°53'0 0.0
2016-Jun-26 12:31N 52°24' E 004°53'  
2016-Jun-23 13:32N 52°24' E 004°53'0 0.0
2016-Jun-23 12:32N 52°24' E 004°53'0 0.0
2016-Jun-23 11:32N 52°24' E 004°53'0 0.0
2016-Jun-23 10:33N 52°24' E 004°53'0 0.0
2016-Jun-23 09:33N 52°24' E 004°53'0 0.0
2016-Jun-21 11:33N 52°24' E 004°53'0 0.0
2016-Jun-21 10:31N 52°24' E 004°53'3 0.1
2016-Jun-19 16:19N 52°23' E 004°57'3 3.5
2016-Jun-19 15:33N 52°22' E 005°02'5 5.1
2016-Jun-19 14:33N 52°26' E 005°08'5 5.3
2016-Jun-19 13:33N 52°31' E 005°10'5 5.4
2016-Jun-19 12:33N 52°36' E 005°13'6 5.6
2016-Jun-19 11:33N 52°41' E 005°17'4 3.9
2016-Jun-19 10:33N 52°45' E 005°17'6 5.6
2016-Jun-19 09:33N 52°47' E 005°08'1 1.1
2016-Jun-19 08:31N 52°46' E 005°06'  
Track history (hours):
 
Tides and Currents Weather Stations Pressure Air Temp Water Temp Dewpoint Dewpoint Depression Visibility Wind Speed Wind Dir Waves Ship Positions

Cocopelli

Last reported at 2016-Jun-26 14:31 UTC. Time now 2016-Jun-30 07:00 UTC.
Position N 52°24' E 004°53'.

Length 15 m.

Type: Sailing vessel. MMSI: 244730543.

Date/timePositionNaut miles runAvg speedWind from/ knotsBaromVisibWave heightAir tempDewpointWater temp
2016-Jun-26 14:31N 52°24' E 004°53'0 0.0
2016-Jun-26 13:31N 52°24' E 004°53'0 0.0
2016-Jun-26 12:31N 52°24' E 004°53'  
2016-Jun-23 13:32N 52°24' E 004°53'0 0.0
2016-Jun-23 12:32N 52°24' E 004°53'0 0.0
2016-Jun-23 11:32N 52°24' E 004°53'0 0.0
2016-Jun-23 10:33N 52°24' E 004°53'0 0.0
2016-Jun-23 09:33N 52°24' E 004°53'0 0.0
2016-Jun-21 11:33N 52°24' E 004°53'0 0.0
2016-Jun-21 10:31N 52°24' E 004°53'3 0.1
2016-Jun-19 16:19N 52°23' E 004°57'3 3.5
2016-Jun-19 15:33N 52°22' E 005°02'5 5.1
2016-Jun-19 14:33N 52°26' E 005°08'5 5.3
2016-Jun-19 13:33N 52°31' E 005°10'5 5.4
2016-Jun-19 12:33N 52°36' E 005°13'6 5.6
2016-Jun-19 11:33N 52°41' E 005°17'4 3.9
2016-Jun-19 10:33N 52°45' E 005°17'6 5.6
2016-Jun-19 09:33N 52°47' E 005°08'1 1.1
2016-Jun-19 08:31N 52°46' E 005°06'  

Dump ship's entire track history